Time;durP1;ratioP1;P1;durP2;ratioP2;P2;SDS_P1;SDS_P2;PMS_P1;PMS_P2;Temp;Humidity;BMP_temperature;BMP_pressure;BME280_temperature;BME280_humidity;BME280_pressure;Samples;Min_cycle;Max_cycle;Signal;HPM_P1;HPM_P2
2023/02/25 00:01:27;;;;;;;8.77;6.50;;;;;;;4.40;100.00;97012.88;5051597;28;20227;-79
2023/02/25 00:03:55;;;;;;;7.43;5.60;;;;;;;4.38;100.00;97009.50;5051647;28;20215;-79
2023/02/25 00:06:22;;;;;;;8.00;5.53;;;;;;;4.40;100.00;97010.25;5051307;28;20218;-79
2023/02/25 00:08:50;;;;;;;7.77;5.43;;;;;;;4.44;100.00;97003.03;5051209;28;20233;-79
2023/02/25 00:11:18;;;;;;;8.10;5.37;;;;;;;4.43;100.00;97007.47;5051524;28;20746;-79
2023/02/25 00:13:46;;;;;;;8.20;5.63;;;;;;;4.40;100.00;97005.03;5051312;28;20209;-79
2023/02/25 00:16:13;;;;;;;8.23;5.57;;;;;;;4.47;100.00;97005.47;5051267;28;20791;-79
2023/02/25 00:18:45;;;;;;;10.77;6.50;;;;;;;4.36;100.00;97000.94;5050698;28;20223;-79
2023/02/25 00:21:14;;;;;;;8.37;5.60;;;;;;;4.48;100.00;97005.41;5051258;28;20312;-79
2023/02/25 00:23:42;;;;;;;8.27;4.97;;;;;;;4.49;100.00;97001.00;5051240;28;20215;-79
2023/02/25 00:26:10;;;;;;;8.33;5.23;;;;;;;4.57;100.00;96999.56;5051035;28;20202;-79
2023/02/25 00:28:38;;;;;;;8.10;5.13;;;;;;;4.59;100.00;97002.09;5051122;28;20221;-79
2023/02/25 00:31:07;;;;;;;6.53;4.60;;;;;;;4.63;100.00;96996.56;5051047;28;20710;-79
2023/02/25 00:33:33;;;;;;;7.30;4.73;;;;;;;4.62;100.00;97001.88;5096501;22;20732;-86
2023/02/25 00:36:07;;;;;;;6.73;4.20;;;;;;;4.64;100.00;97006.09;5090955;28;20209;-87
2023/02/25 00:38:34;;;;;;;7.47;4.57;;;;;;;4.60;100.00;96994.16;5091297;28;20236;-85
2023/02/25 00:41:07;;;;;;;8.40;4.63;;;;;;;4.62;100.00;97002.75;5091120;28;20299;-85
2023/02/25 00:43:34;;;;;;;6.90;3.90;;;;;;;4.67;100.00;97011.16;5091284;28;20239;-88
2023/02/25 00:46:00;;;;;;;5.83;4.10;;;;;;;4.65;100.00;96997.28;5091027;28;20206;-87
2023/02/25 00:48:27;;;;;;;6.23;4.63;;;;;;;4.71;99.79;97002.13;5090910;28;20207;-87
2023/02/25 00:50:53;;;;;;;7.27;3.93;;;;;;;4.73;98.94;97016.00;5090948;28;20624;-87
2023/02/25 00:53:21;;;;;;;5.63;3.73;;;;;;;4.69;99.86;97004.03;5091077;28;20256;-80
2023/02/25 00:55:47;;;;;;;7.43;4.10;;;;;;;4.73;99.11;97012.50;5090995;28;20210;-87
2023/02/25 00:58:14;;;;;;;7.50;4.10;;;;;;;4.69;100.00;97006.66;5090682;28;20223;-84
2023/02/25 01:00:43;;;;;;;8.50;4.77;;;;;;;4.66;100.00;97004.25;5090989;28;20206;-84
2023/02/25 01:03:10;;;;;;;6.37;4.13;;;;;;;4.63;100.00;97009.66;5090854;28;20666;-84
2023/02/25 01:05:40;;;;;;;7.33;4.37;;;;;;;4.65;100.00;97018.22;5091054;28;20221;-86
2023/02/25 01:08:07;;;;;;;5.53;4.20;;;;;;;4.67;100.00;97021.63;5090994;28;20218;-85
2023/02/25 01:10:34;;;;;;;6.40;4.37;;;;;;;4.65;100.00;97023.47;5090881;28;20880;-85
2023/02/25 01:13:01;;;;;;;6.90;4.13;;;;;;;4.63;100.00;97035.81;5090713;28;20244;-85
2023/02/25 01:15:30;;;;;;;6.03;4.13;;;;;;;4.66;100.00;97030.41;5090758;28;20213;-85
2023/02/25 01:17:57;;;;;;;4.33;3.50;;;;;;;4.69;100.00;97026.72;5090815;28;20209;-85
2023/02/25 01:20:23;;;;;;;7.17;3.57;;;;;;;4.72;97.78;97024.78;5090778;28;20670;-85
2023/02/25 01:22:50;;;;;;;5.20;3.50;;;;;;;4.68;96.46;97018.06;5090862;28;20260;-86
2023/02/25 01:25:17;;;;;;;3.37;3.00;;;;;;;4.69;95.12;97006.66;5090701;28;20211;-87
2023/02/25 01:27:45;;;;;;;4.67;3.27;;;;;;;4.64;95.60;97021.78;5090594;28;20266;-86
2023/02/25 01:30:12;;;;;;;4.57;3.07;;;;;;;4.65;95.62;97023.47;5092222;28;20236;-86
2023/02/25 01:32:38;;;;;;;7.67;3.77;;;;;;;4.62;96.00;97018.44;5094288;28;20242;-85
2023/02/25 01:35:05;;;;;;;5.17;3.20;;;;;;;4.65;95.72;97027.88;5094265;28;20216;-85
2023/02/25 01:37:32;;;;;;;6.47;3.93;;;;;;;4.65;97.29;97039.16;5094037;28;20697;-86
2023/02/25 01:39:58;;;;;;;4.70;3.70;;;;;;;4.63;97.00;97043.66;5094286;28;20666;-85
2023/02/25 01:42:24;;;;;;;5.07;3.60;;;;;;;4.61;97.97;97049.94;5094029;28;20465;-85
2023/02/25 01:45:33;;;;;;;7.67;4.03;;;;;;;4.65;99.62;97054.88;5094020;28;20212;-85
2023/02/25 01:48:07;;;;;;;7.57;4.10;;;;;;;4.71;99.26;97053.66;5093995;28;20214;-85
2023/02/25 01:50:41;;;;;;;7.07;3.50;;;;;;;4.72;99.42;97052.72;5093824;28;20329;-85
2023/02/25 01:53:08;;;;;;;5.23;3.77;;;;;;;4.70;98.42;97052.81;5093814;28;20234;-85
2023/02/25 01:55:35;;;;;;;6.47;3.80;;;;;;;4.72;99.14;97057.94;5093974;28;20211;-85
2023/02/25 01:58:02;;;;;;;4.77;3.70;;;;;;;4.74;97.04;97049.06;5093612;28;20211;-85
2023/02/25 02:00:32;;;;;;;7.10;3.63;;;;;;;4.75;96.81;97049.88;5093403;28;20212;-85
2023/02/25 02:03:01;;;;;;;6.37;3.37;;;;;;;4.80;95.90;97035.59;5091548;28;20227;-85
2023/02/25 02:05:39;;;;;;;6.60;3.07;;;;;;;4.75;95.59;97032.41;5093706;28;20204;-85
2023/02/25 02:08:06;;;;;;;4.17;3.07;;;;;;;4.73;95.14;97026.47;5093630;28;20211;-85
2023/02/25 02:10:32;;;;;;;6.00;3.43;;;;;;;4.75;94.55;97019.34;5093668;28;20239;-85
2023/02/25 02:12:59;;;;;;;4.73;3.03;;;;;;;4.74;94.45;97012.44;5093624;28;20600;-85
2023/02/25 02:15:25;;;;;;;5.80;2.90;;;;;;;4.78;91.99;97019.16;5093800;28;20209;-85
2023/02/25 02:17:58;;;;;;;6.13;3.00;;;;;;;4.75;91.43;97021.97;5093215;28;20218;-85
2023/02/25 02:20:30;;;;;;;5.67;3.30;;;;;;;4.73;92.53;97028.22;5093743;28;20207;-86
2023/02/25 02:23:30;;;;;;;3.77;2.70;;;;;;;4.77;91.68;97027.91;5093475;28;20238;-85
2023/02/25 02:26:35;;;;;;;5.40;2.73;;;;;;;4.74;90.71;97028.13;5078621;28;20204;-85
2023/02/25 02:29:45;;;;;;;4.63;2.60;;;;;;;4.73;90.97;97023.00;5091397;28;20213;-85
2023/02/25 02:32:20;;;;;;;3.00;2.40;;;;;;;4.73;91.07;97033.44;5093168;28;20243;-85
2023/02/25 02:34:57;;;;;;;3.63;2.53;;;;;;;4.75;90.82;97032.41;5093263;28;20330;-85
2023/02/25 02:37:34;;;;;;;6.33;2.70;;;;;;;4.75;89.78;97037.66;5092860;28;20208;-85
2023/02/25 02:40:14;;;;;;;3.83;3.03;;;;;;;4.76;90.46;97039.34;5093194;28;20211;-85
2023/02/25 02:42:46;;;;;;;5.47;2.90;;;;;;;4.75;90.29;97053.34;5092451;28;20228;-84
2023/02/25 02:45:19;;;;;;;6.23;2.63;;;;;;;4.76;90.55;97062.88;5092930;28;20216;-86
2023/02/25 02:47:51;;;;;;;6.57;2.93;;;;;;;4.71;91.17;97059.72;5092830;28;20864;-84
2023/02/25 02:50:26;;;;;;;5.93;2.90;;;;;;;4.68;91.87;97065.16;5093008;28;20231;-84
2023/02/25 02:52:58;;;;;;;6.83;2.83;;;;;;;4.70;91.54;97067.69;5092929;28;20239;-84
2023/02/25 02:55:29;;;;;;;6.80;3.00;;;;;;;4.79;91.42;97062.72;5092574;28;20704;-84
2023/02/25 02:58:01;;;;;;;3.47;2.80;;;;;;;4.80;92.06;97058.28;5092549;28;20249;-86
2023/02/25 03:00:36;;;;;;;3.97;2.87;;;;;;;4.74;92.58;97070.00;5092976;28;20190;-84
2023/02/25 03:03:08;;;;;;;5.03;3.03;;;;;;;4.80;92.97;97064.38;5092840;28;20238;-84
2023/02/25 03:05:37;;;;;;;4.43;2.80;;;;;;;4.72;93.35;97068.41;5092730;28;20211;-86
2023/02/25 03:08:10;;;;;;;4.27;2.63;;;;;;;4.69;92.86;97065.97;5092244;28;20222;-84
2023/02/25 03:10:37;;;;;;;6.60;3.07;;;;;;;4.69;94.05;97079.06;5092356;28;20239;-84
2023/02/25 03:13:03;;;;;;;4.77;3.00;;;;;;;4.70;94.29;97076.34;5092442;28;20710;-84
2023/02/25 03:15:32;;;;;;;5.80;3.10;;;;;;;4.72;93.51;97077.13;5092721;28;20227;-84
2023/02/25 03:18:03;;;;;;;5.27;3.20;;;;;;;4.78;94.16;97075.88;5092072;28;20674;-84
2023/02/25 03:20:37;;;;;;;5.17;3.10;;;;;;;4.67;93.89;97068.72;5092387;28;20211;-84
2023/02/25 03:23:07;;;;;;;5.53;3.17;;;;;;;4.59;93.41;97076.19;5092163;28;20229;-84
2023/02/25 03:25:46;;;;;;;6.30;3.40;;;;;;;4.51;94.70;97088.91;5092100;28;20702;-84
2023/02/25 03:28:28;;;;;;;5.20;2.93;;;;;;;4.52;96.51;97101.03;5092114;28;20216;-85
2023/02/25 03:31:01;;;;;;;6.10;3.40;;;;;;;4.51;96.33;97099.38;5091967;28;20330;-84
2023/02/25 03:33:32;;;;;;;3.80;3.10;;;;;;;4.53;95.31;97097.50;5091983;28;20236;-84
2023/02/25 03:36:03;;;;;;;4.23;2.90;;;;;;;4.56;93.75;97092.09;5091869;28;20209;-84
2023/02/25 03:38:33;;;;;;;5.37;3.13;;;;;;;4.54;93.00;97086.13;5092032;28;20211;-81
2023/02/25 03:41:04;;;;;;;5.37;3.03;;;;;;;4.56;92.85;97092.09;5092048;28;20203;-86
2023/02/25 03:43:36;;;;;;;6.00;3.27;;;;;;;4.60;91.23;97082.25;5091973;28;20726;-84
2023/02/25 03:46:05;;;;;;;4.23;2.80;;;;;;;4.52;91.29;97084.53;5092059;28;20213;-86
2023/02/25 03:48:35;;;;;;;6.37;2.70;;;;;;;4.48;91.85;97096.97;5091965;28;20674;-84
2023/02/25 03:51:05;;;;;;;3.63;2.90;;;;;;;4.38;91.36;97093.22;5091564;28;20729;-84
2023/02/25 03:53:34;;;;;;;4.97;2.40;;;;;;;4.44;91.14;97098.06;5091682;28;20232;-84
2023/02/25 03:56:05;;;;;;;4.57;2.60;;;;;;;4.31;92.03;97094.53;5091509;28;20703;-86
2023/02/25 03:58:32;;;;;;;3.27;2.30;;;;;;;4.27;90.94;97092.19;5091512;28;20253;-84
2023/02/25 04:01:02;;;;;;;3.67;2.07;;;;;;;4.23;90.28;97090.69;5091686;28;20205;-83
2023/02/25 04:03:28;;;;;;;3.00;2.03;;;;;;;4.26;88.75;97088.72;5091593;28;20282;-86
2023/02/25 04:05:55;;;;;;;4.90;2.40;;;;;;;4.09;89.92;97101.16;5091613;28;20307;-84
2023/02/25 04:08:23;;;;;;;6.47;2.60;;;;;;;3.96;90.89;97110.63;5091126;28;20203;-84
2023/02/25 04:10:49;;;;;;;5.27;2.23;;;;;;;3.90;90.45;97106.63;5091484;28;20240;-85
2023/02/25 04:13:19;;;;;;;6.27;2.00;;;;;;;3.89;89.97;97107.56;5091438;28;20241;-85
2023/02/25 04:15:46;;;;;;;4.47;2.17;;;;;;;3.92;88.78;97114.38;5091403;28;20230;-85
2023/02/25 04:18:13;;;;;;;6.63;2.00;;;;;;;3.87;88.72;97106.81;5091207;28;20203;-85
2023/02/25 04:20:40;;;;;;;6.93;1.87;;;;;;;3.90;87.65;97101.38;5091149;28;20205;-84
2023/02/25 04:23:06;;;;;;;4.90;1.63;;;;;;;3.79;88.37;97095.13;5090963;28;20235;-84
2023/02/25 04:25:36;;;;;;;5.03;1.67;;;;;;;3.69;88.14;97105.28;5091291;28;20208;-84
2023/02/25 04:28:02;;;;;;;2.90;1.50;;;;;;;3.66;88.45;97115.88;5090932;28;20754;-84
2023/02/25 04:30:29;;;;;;;4.83;1.90;;;;;;;3.64;88.17;97109.91;5091238;28;20289;-85
2023/02/25 04:32:55;;;;;;;3.20;1.80;;;;;;;3.61;88.46;97115.31;5091094;28;20587;-84
2023/02/25 04:35:22;;;;;;;2.10;1.43;;;;;;;3.59;88.40;97117.19;5091351;28;20295;-84
2023/02/25 04:37:48;;;;;;;3.63;1.67;;;;;;;3.54;90.05;97128.84;5090787;28;20208;-84
2023/02/25 04:40:17;;;;;;;5.80;1.87;;;;;;;3.55;90.01;97126.09;5091222;28;20214;-84
2023/02/25 04:42:45;;;;;;;3.67;2.10;;;;;;;3.54;91.51;97134.88;5090996;28;20223;-84
2023/02/25 04:45:13;;;;;;;2.97;1.60;;;;;;;3.55;92.23;97135.72;5091164;28;20201;-84
2023/02/25 04:47:40;;;;;;;5.57;1.70;;;;;;;3.54;93.09;97145.31;5090788;28;20667;-86
2023/02/25 04:50:09;;;;;;;3.20;1.60;;;;;;;3.59;91.08;97142.44;5090909;28;20211;-84
2023/02/25 04:52:36;;;;;;;3.13;1.80;;;;;;;3.58;91.03;97141.63;5091018;28;20717;-84
2023/02/25 04:55:04;;;;;;;4.80;1.47;;;;;;;3.62;89.47;97135.28;5091063;28;20209;-84
2023/02/25 04:57:30;;;;;;;5.97;1.77;;;;;;;3.65;89.26;97127.28;5090861;28;20220;-84
2023/02/25 04:59:58;;;;;;;3.40;1.67;;;;;;;3.72;87.11;97125.97;5091319;28;20311;-84
2023/02/25 05:02:24;;;;;;;4.70;1.40;;;;;;;3.77;87.44;97130.94;5090827;28;20233;-84
2023/02/25 05:04:51;;;;;;;3.07;1.70;;;;;;;3.79;85.86;97123.88;5091982;28;20207;-83
2023/02/25 05:07:17;;;;;;;4.30;1.73;;;;;;;3.78;86.17;97123.00;5094786;28;20208;-84
2023/02/25 05:09:44;;;;;;;2.80;1.70;;;;;;;3.82;87.65;97137.59;5094968;28;20262;-84
2023/02/25 05:12:10;;;;;;;2.93;1.40;;;;;;;3.88;86.53;97124.16;5094846;28;20608;-84
2023/02/25 05:14:37;;;;;;;6.50;1.67;;;;;;;3.87;86.78;97130.34;5094797;28;20211;-84
2023/02/25 05:17:05;;;;;;;3.47;1.47;;;;;;;3.90;87.16;97127.53;5094441;28;20327;-84
2023/02/25 05:19:31;;;;;;;5.47;1.90;;;;;;;3.92;86.75;97133.50;5094871;28;20582;-84
2023/02/25 05:21:58;;;;;;;3.33;1.80;;;;;;;3.92;86.81;97125.66;5094661;28;20220;-84
2023/02/25 05:24:24;;;;;;;1.90;1.40;;;;;;;3.92;85.51;97109.97;5094473;28;20206;-84
2023/02/25 05:26:51;;;;;;;3.40;1.30;;;;;;;3.98;84.83;97114.84;5094241;28;20204;-84
2023/02/25 05:29:17;;;;;;;4.40;1.60;;;;;;;4.02;83.03;97102.41;5094594;28;20209;-84
2023/02/25 05:31:44;;;;;;;8.87;1.67;;;;;;;3.97;81.64;97087.00;5094014;28;20725;-85
2023/02/25 05:34:12;;;;;;;4.83;1.47;;;;;;;4.03;82.86;97104.13;5094543;28;20585;-83
2023/02/25 05:36:38;;;;;;;4.30;1.27;;;;;;;4.04;81.69;97109.25;5094165;28;20618;-84
2023/02/25 05:39:06;;;;;;;4.07;1.33;;;;;;;4.00;81.30;97102.53;5094395;28;20240;-84
2023/02/25 05:41:32;;;;;;;5.93;1.40;;;;;;;3.99;79.77;97090.41;5094301;28;20201;-86
2023/02/25 05:43:59;;;;;;;3.30;1.50;;;;;;;3.95;80.28;97094.13;5094196;28;20213;-85
2023/02/25 05:46:25;;;;;;;3.97;1.20;;;;;;;3.95;80.99;97104.56;5093673;28;20221;-85
2023/02/25 05:48:52;;;;;;;5.90;1.60;;;;;;;4.01;80.50;97098.13;5094256;28;20209;-85
2023/02/25 05:51:22;;;;;;;6.40;1.40;;;;;;;3.97;80.88;97110.53;5094106;28;20337;-84
2023/02/25 05:53:48;;;;;;;3.57;1.47;;;;;;;4.00;79.90;97102.53;5093860;28;20788;-84
2023/02/25 05:56:17;;;;;;;2.93;1.50;;;;;;;3.96;79.06;97094.94;5093697;28;20205;-84
2023/02/25 05:58:45;;;;;;;4.80;1.40;;;;;;;3.98;79.03;97099.16;5093844;28;20687;-84
2023/02/25 06:01:13;;;;;;;2.40;1.23;;;;;;;3.98;78.41;97101.75;5093878;28;20915;-84
2023/02/25 06:03:41;;;;;;;3.73;1.70;;;;;;;4.01;77.73;97098.97;5093717;28;20752;-84
2023/02/25 06:06:09;;;;;;;1.87;1.10;;;;;;;3.99;77.44;97113.06;5093366;28;20211;-84
2023/02/25 06:08:37;;;;;;;2.73;1.27;;;;;;;3.97;79.05;97120.19;5093844;28;20246;-84
2023/02/25 06:11:06;;;;;;;5.07;1.50;;;;;;;3.95;79.92;97128.09;5093681;28;20323;-85
2023/02/25 06:13:32;;;;;;;5.23;1.40;;;;;;;4.02;80.78;97132.03;5093430;28;20234;-84
2023/02/25 06:16:02;;;;;;;4.07;1.30;;;;;;;4.01;80.01;97132.13;5092440;28;20209;-85
2023/02/25 06:18:28;;;;;;;3.13;1.33;;;;;;;3.98;80.43;97124.47;5093330;28;20216;-84
2023/02/25 06:20:55;;;;;;;2.60;1.63;;;;;;;4.01;80.74;97125.13;5093778;28;20214;-84
2023/02/25 06:23:21;;;;;;;4.10;1.13;;;;;;;4.06;80.92;97138.78;5093478;28;20245;-84
2023/02/25 06:25:49;;;;;;;3.00;1.30;;;;;;;4.11;81.69;97141.97;5093244;28;20205;-84
2023/02/25 06:28:15;;;;;;;3.20;1.33;;;;;;;4.09;81.59;97149.03;5093228;28;20210;-84
2023/02/25 06:30:42;;;;;;;5.63;1.70;;;;;;;4.13;82.36;97150.53;5093315;28;20220;-84
2023/02/25 06:33:09;;;;;;;3.10;1.43;;;;;;;4.14;81.11;97141.75;5100897;22;20691;-77
2023/02/25 06:35:35;;;;;;;3.20;1.30;;;;;;;4.13;81.73;97137.47;5073410;28;20205;-76
2023/02/25 06:38:02;;;;;;;3.10;1.20;;;;;;;4.18;81.88;97148.50;5072777;28;20205;-78
2023/02/25 06:40:28;;;;;;;2.80;1.20;;;;;;;4.23;81.85;97150.84;5073456;28;20213;-79
2023/02/25 06:42:56;;;;;;;3.47;1.30;;;;;;;4.25;82.46;97160.28;5073290;28;20237;-78
2023/02/25 06:45:23;;;;;;;3.83;1.10;;;;;;;4.25;82.41;97157.66;5073103;28;20662;-78
2023/02/25 06:47:49;;;;;;;2.33;1.53;;;;;;;4.19;83.02;97160.63;5073106;28;20350;-78
2023/02/25 06:50:17;;;;;;;6.70;1.80;;;;;;;4.15;82.69;97150.47;5073113;28;20237;-78
2023/02/25 06:52:43;;;;;;;3.13;1.27;;;;;;;4.16;82.82;97152.97;5073020;28;20228;-78
2023/02/25 06:55:10;;;;;;;2.83;1.30;;;;;;;4.20;82.65;97159.69;5072974;28;20207;-78
2023/02/25 06:57:37;;;;;;;8.27;1.40;;;;;;;4.24;83.29;97165.59;5072867;28;20209;-78
2023/02/25 07:00:06;;;;;;;4.83;1.50;;;;;;;4.26;82.74;97155.88;5072903;28;20228;-78
2023/02/25 07:02:33;;;;;;;1.87;1.27;;;;;;;4.20;83.36;97172.78;5072626;28;20675;-78
2023/02/25 07:05:00;;;;;;;2.23;1.23;;;;;;;4.27;83.54;97171.47;5072791;28;20212;-78
2023/02/25 07:07:26;;;;;;;1.87;1.20;;;;;;;4.31;84.43;97175.59;5072583;28;20210;-78
2023/02/25 07:09:53;;;;;;;3.03;1.23;;;;;;;4.32;81.82;97166.81;5072664;28;20216;-78
2023/02/25 07:12:20;;;;;;;2.93;1.40;;;;;;;4.27;81.01;97166.25;5072740;28;20231;-78
2023/02/25 07:14:46;;;;;;;4.13;1.43;;;;;;;4.29;81.26;97171.41;5072599;28;20210;-78
2023/02/25 07:17:14;;;;;;;2.97;1.33;;;;;;;4.28;80.83;97170.53;5072361;28;20207;-77
2023/02/25 07:19:40;;;;;;;5.43;1.67;;;;;;;4.38;79.10;97163.84;5072501;28;20203;-78
2023/02/25 07:22:08;;;;;;;2.90;1.30;;;;;;;4.35;78.24;97161.38;5072494;28;20410;-78
2023/02/25 07:24:35;;;;;;;5.30;1.33;;;;;;;4.40;77.56;97171.59;5072376;28;20210;-78
2023/02/25 07:27:01;;;;;;;3.00;1.40;;;;;;;4.46;77.97;97179.91;5072071;28;20232;-78
2023/02/25 07:29:28;;;;;;;2.63;1.20;;;;;;;4.50;77.41;97165.72;5072564;28;20214;-77
2023/02/25 07:31:54;;;;;;;3.40;1.50;;;;;;;4.45;74.86;97159.91;5072189;28;20723;-79
2023/02/25 07:34:22;;;;;;;4.00;1.90;;;;;;;4.48;74.67;97170.22;5072097;28;20256;-78
2023/02/25 07:36:49;;;;;;;2.30;1.23;;;;;;;4.46;73.11;97152.91;5072027;28;20625;-76
2023/02/25 07:39:15;;;;;;;1.97;1.10;;;;;;;4.39;72.99;97152.44;5072413;28;20211;-76
2023/02/25 07:41:42;;;;;;;3.63;1.70;;;;;;;4.39;74.68;97162.91;5072359;28;20204;-77
2023/02/25 07:44:09;;;;;;;3.03;1.40;;;;;;;4.42;76.20;97173.19;5072052;28;20260;-77
2023/02/25 07:46:35;;;;;;;2.60;1.20;;;;;;;4.48;75.84;97157.13;5071771;28;20210;-77
2023/02/25 07:49:02;;;;;;;1.50;1.00;;;;;;;4.49;75.43;97153.56;5071987;28;20213;-77
2023/02/25 07:51:30;;;;;;;3.70;1.30;;;;;;;4.58;76.14;97163.47;5071730;28;20611;-78
2023/02/25 07:53:57;;;;;;;4.00;1.70;;;;;;;4.58;76.00;97170.50;5072034;28;20223;-78
2023/02/25 07:56:26;;;;;;;4.97;1.60;;;;;;;4.64;76.73;97168.31;5071646;28;20207;-77
2023/02/25 07:58:52;;;;;;;3.20;1.47;;;;;;;4.71;76.39;97159.16;5072034;28;20207;-77
2023/02/25 08:01:22;;;;;;;4.87;1.50;;;;;;;4.80;76.60;97169.09;5071834;28;20206;-77
2023/02/25 08:03:48;;;;;;;4.43;1.40;;;;;;;4.82;74.30;97159.34;5071685;28;20643;-78
2023/02/25 08:06:15;;;;;;;1.77;1.10;;;;;;;4.92;74.71;97159.63;5071418;28;20217;-79
2023/02/25 08:08:43;;;;;;;4.90;1.53;;;;;;;4.91;75.07;97150.09;5071538;28;20672;-78
2023/02/25 08:11:12;;;;;;;4.33;1.50;;;;;;;5.04;73.39;97148.38;5071707;28;20211;-78
2023/02/25 08:13:40;;;;;;;2.37;1.30;;;;;;;5.00;72.05;97139.06;5071657;28;20229;-78
2023/02/25 08:16:09;;;;;;;3.67;1.50;;;;;;;5.00;71.83;97134.63;5071354;28;20214;-78
2023/02/25 08:18:37;;;;;;;4.87;1.53;;;;;;;5.04;70.31;97124.81;5071429;28;20222;-78
2023/02/25 08:21:04;;;;;;;3.00;1.37;;;;;;;4.99;70.35;97132.97;5071752;28;20216;-78
2023/02/25 08:23:31;;;;;;;1.80;1.40;;;;;;;5.02;72.15;97139.78;5071586;28;20231;-77
2023/02/25 08:25:59;;;;;;;3.43;1.63;;;;;;;5.12;72.43;97154.81;5071567;28;20213;-76
2023/02/25 08:28:30;;;;;;;3.27;1.47;;;;;;;5.13;70.91;97159.13;5071169;28;20692;-76
2023/02/25 08:30:57;;;;;;;5.77;1.50;;;;;;;5.11;70.85;97153.13;5071380;28;20313;-76
2023/02/25 08:33:24;;;;;;;2.90;1.23;;;;;;;5.21;71.14;97149.03;5071189;28;20278;-78
2023/02/25 08:35:51;;;;;;;2.00;1.40;;;;;;;5.30;70.62;97144.94;5071531;28;20222;-76
2023/02/25 08:38:18;;;;;;;3.50;1.30;;;;;;;5.30;69.68;97137.09;5071047;28;20214;-78
2023/02/25 08:40:45;;;;;;;2.50;1.20;;;;;;;5.48;68.68;97136.75;5070903;28;20217;-77
2023/02/25 08:43:13;;;;;;;4.47;1.40;;;;;;;5.41;67.64;97118.91;5071296;28;20701;-77
2023/02/25 08:45:41;;;;;;;2.07;1.50;;;;;;;5.43;68.54;97132.75;5071331;28;20584;-77
2023/02/25 08:48:08;;;;;;;3.77;1.40;;;;;;;5.55;66.72;97122.31;5071097;28;20675;-76
2023/02/25 08:50:35;;;;;;;4.43;1.23;;;;;;;5.51;66.43;97126.06;5071602;28;20229;-76
2023/02/25 08:53:01;;;;;;;5.20;1.60;;;;;;;5.63;66.53;97122.63;5070989;28;20591;-76
2023/02/25 08:55:28;;;;;;;3.57;1.43;;;;;;;5.62;66.65;97128.81;5071517;28;20224;-81
2023/02/25 08:57:54;;;;;;;4.63;1.58;;;;;;;5.62;63.25;97102.63;5070176;28;20445;-78
2023/02/25 09:00:24;;;;;;;3.40;1.20;;;;;;;5.52;62.43;97101.56;5070541;28;20212;-77
2023/02/25 09:02:50;;;;;;;3.40;1.20;;;;;;;5.62;64.43;97123.59;5071136;28;20230;-77
2023/02/25 09:05:17;;;;;;;2.87;1.40;;;;;;;5.56;62.90;97107.44;5070295;28;20221;-77
2023/02/25 09:07:43;;;;;;;3.97;1.20;;;;;;;5.57;63.59;97117.78;5069372;28;20203;-78
2023/02/25 09:10:12;;;;;;;4.07;1.23;;;;;;;5.57;62.99;97116.97;5069091;28;20207;-77
2023/02/25 09:12:41;;;;;;;4.57;1.37;;;;;;;5.68;64.27;97123.19;5069680;28;20241;-78
2023/02/25 09:15:09;;;;;;;6.53;1.93;;;;;;;5.70;64.16;97109.97;5070303;28;20296;-78
2023/02/25 09:17:37;;;;;;;4.97;1.47;;;;;;;5.70;63.09;97105.59;5070093;28;20231;-77
2023/02/25 09:20:06;;;;;;;2.90;1.47;;;;;;;5.78;62.51;97108.53;5070091;28;20665;-77
2023/02/25 09:22:32;;;;;;;4.83;1.40;;;;;;;5.82;61.94;97107.44;5070430;28;20230;-78
2023/02/25 09:24:59;;;;;;;1.70;1.30;;;;;;;5.77;61.98;97096.38;5070881;28;20257;-79
2023/02/25 09:27:25;;;;;;;4.83;1.33;;;;;;;5.89;61.06;97094.75;5070502;28;20701;-78
2023/02/25 09:29:52;;;;;;;3.43;1.57;;;;;;;5.94;61.31;97098.75;5071091;28;20222;-78
2023/02/25 09:32:21;;;;;;;1.97;1.10;;;;;;;5.95;60.84;97103.06;5070710;28;20232;-78
2023/02/25 09:34:49;;;;;;;3.37;1.40;;;;;;;6.03;59.76;97092.88;5070812;28;20756;-76
2023/02/25 09:37:16;;;;;;;4.93;1.37;;;;;;;6.08;60.04;97082.91;5070505;28;20212;-79
2023/02/25 09:39:42;;;;;;;3.70;1.30;;;;;;;6.15;59.64;97086.78;5070620;28;20211;-79
2023/02/25 09:42:13;;;;;;;5.83;1.80;;;;;;;6.11;59.73;97080.06;5070876;28;20285;-77
2023/02/25 09:44:43;;;;;;;3.83;1.50;;;;;;;6.23;60.01;97094.97;5070660;28;20263;-78
2023/02/25 09:47:18;;;;;;;4.53;1.10;;;;;;;6.33;58.37;97067.16;5070570;28;20218;-78
2023/02/25 09:49:49;;;;;;;1.50;0.90;;;;;;;6.19;57.64;97067.28;5070802;28;20214;-76
2023/02/25 09:52:22;;;;;;;2.27;0.90;;;;;;;6.11;57.48;97074.81;5073649;28;20242;-76
2023/02/25 09:54:54;;;;;;;1.30;0.80;;;;;;;6.18;59.29;97094.44;5074365;28;20210;-85
2023/02/25 09:57:22;;;;;;;2.27;1.00;;;;;;;6.27;57.18;97072.84;5073868;28;20661;-76
2023/02/25 09:59:52;;;;;;;2.90;1.20;;;;;;;6.26;56.03;97063.31;5074108;28;20225;-80
2023/02/25 10:02:36;;;;;;;3.90;1.07;;;;;;;6.24;56.04;97066.97;5073868;28;20204;-80
2023/02/25 10:05:22;;;;;;;1.53;0.70;;;;;;;6.08;55.24;97058.47;5073934;28;20671;-78
2023/02/25 10:07:59;;;;;;;3.47;0.80;;;;;;;6.03;55.67;97056.16;5072482;28;20211;-79
2023/02/25 10:10:34;;;;;;;3.00;0.70;;;;;;;6.12;56.51;97071.25;5073754;28;20226;-80
2023/02/25 10:13:14;;;;;;;0.97;0.77;;;;;;;6.13;56.50;97075.56;5073565;28;20234;-80
2023/02/25 10:15:52;;;;;;;1.57;0.80;;;;;;;6.18;56.91;97081.31;5073673;28;20218;-80
2023/02/25 10:18:31;;;;;;;1.50;0.70;;;;;;;6.23;55.91;97079.22;5073508;28;20212;-80
2023/02/25 10:21:12;;;;;;;1.60;0.70;;;;;;;6.24;55.31;97075.66;5073546;28;20301;-80
2023/02/25 10:23:51;;;;;;;1.10;0.87;;;;;;;6.21;56.61;97091.63;5073480;28;20237;-79
2023/02/25 10:26:22;;;;;;;1.57;0.77;;;;;;;6.01;56.55;97073.78;5073408;28;20653;-80
2023/02/25 10:28:52;;;;;;;3.17;1.00;;;;;;;6.20;55.96;97074.22;5073608;28;20215;-79
2023/02/25 10:31:21;;;;;;;0.80;0.70;;;;;;;6.02;55.16;97064.97;5073676;28;20297;-79
2023/02/25 10:33:50;;;;;;;0.83;0.80;;;;;;;6.09;56.53;97076.72;5073195;28;20242;-77
2023/02/25 10:36:22;;;;;;;2.43;1.20;;;;;;;5.99;55.94;97069.59;5073065;28;20226;-77
2023/02/25 10:38:52;;;;;;;2.30;0.90;;;;;;;6.04;57.14;97081.44;5073468;28;20657;-76
2023/02/25 10:41:21;;;;;;;2.93;1.00;;;;;;;6.02;55.65;97062.34;5073287;28;20218;-80
2023/02/25 10:43:49;;;;;;;2.80;1.00;;;;;;;6.11;55.93;97059.09;5073357;28;20239;-80
2023/02/25 10:46:21;;;;;;;0.90;0.70;;;;;;;5.81;56.65;97053.28;5072867;28;20603;-79
2023/02/25 10:48:56;;;;;;;1.93;0.97;;;;;;;5.78;57.13;97061.34;5073216;28;20688;-80
2023/02/25 10:51:24;;;;;;;2.73;0.97;;;;;;;5.69;57.24;97054.09;5072024;28;20215;-78
2023/02/25 10:54:05;;;;;;;2.70;1.00;;;;;;;5.75;58.41;97064.16;5071715;28;20228;-79
2023/02/25 10:56:41;;;;;;;1.53;0.90;;;;;;;5.92;59.33;97074.41;5071898;28;20214;-79
2023/02/25 10:59:22;;;;;;;1.83;1.00;;;;;;;5.99;58.24;97080.91;5072907;28;20215;-81
2023/02/25 11:01:49;;;;;;;3.67;0.90;;;;;;;6.32;58.31;97077.75;5072712;28;20215;-79
2023/02/25 11:04:20;;;;;;;2.83;0.90;;;;;;;6.62;58.37;97073.00;5072314;28;20227;-80
2023/02/25 11:06:47;;;;;;;3.07;1.10;;;;;;;6.86;55.87;97050.28;5072483;28;20804;-81
2023/02/25 11:09:34;;;;;;;1.53;1.03;;;;;;;7.01;55.02;97044.75;5072614;28;20215;-79
2023/02/25 11:12:10;;;;;;;2.13;0.90;;;;;;;6.97;55.57;97047.72;5072879;28;20217;-82
2023/02/25 11:14:38;;;;;;;1.77;1.00;;;;;;;6.83;56.42;97048.69;5072803;28;20206;-82
2023/02/25 11:17:12;;;;;;;2.10;1.23;;;;;;;6.72;57.45;97064.38;5072473;28;20606;-80
2023/02/25 11:19:42;;;;;;;5.07;1.43;;;;;;;6.52;56.84;97064.94;5072597;28;20253;-81
2023/02/25 11:22:15;;;;;;;4.00;1.30;;;;;;;6.17;57.60;97061.28;5072615;28;20574;-82
2023/02/25 11:24:46;;;;;;;4.23;1.33;;;;;;;6.06;58.08;97063.84;5072690;28;20230;-80
2023/02/25 11:27:29;;;;;;;1.97;1.20;;;;;;;6.14;59.82;97064.13;5072231;28;20211;-78
2023/02/25 11:30:02;;;;;;;1.73;1.40;;;;;;;6.24;59.64;97080.91;5072406;28;20313;-78
2023/02/25 11:32:31;;;;;;;4.03;1.10;;;;;;;6.18;59.39;97076.06;5071893;28;20242;-80
2023/02/25 11:35:06;;;;;;;4.07;1.20;;;;;;;6.19;60.62;97085.66;5072523;28;20211;-81
2023/02/25 11:37:36;;;;;;;2.67;1.27;;;;;;;6.27;59.77;97093.81;5072296;28;20199;-80
2023/02/25 11:40:21;;;;;;;2.00;1.20;;;;;;;6.21;59.43;97075.03;5072464;28;20561;-80
2023/02/25 11:43:15;;;;;;;2.40;1.30;;;;;;;6.20;59.91;97078.59;5071990;28;20226;-80
2023/02/25 11:45:54;;;;;;;3.53;1.50;;;;;;;6.29;60.36;97091.09;5072183;28;20229;-80
2023/02/25 11:48:24;;;;;;;4.60;1.40;;;;;;;6.20;59.96;97079.47;5071884;28;20207;-80
2023/02/25 11:50:59;;;;;;;2.07;1.10;;;;;;;6.34;59.52;97074.09;5071892;28;20590;-79
2023/02/25 11:53:37;;;;;;;1.83;1.30;;;;;;;6.26;60.04;97076.41;5072119;28;20238;-80